createdAt,value
2023-02-18T00:00:29.085Z,3.76
2023-02-18T00:02:58.303Z,3.76
2023-02-18T00:05:25.011Z,3.77
2023-02-18T00:07:51.758Z,3.80
2023-02-18T00:10:18.565Z,3.86
2023-02-18T00:12:45.656Z,4.03
2023-02-18T00:15:12.837Z,4.04
2023-02-18T00:17:39.541Z,4.26
2023-02-18T00:20:07.451Z,4.30
2023-02-18T00:22:34.660Z,4.31
2023-02-18T00:25:01.332Z,4.50
2023-02-18T00:27:27.971Z,4.38
2023-02-18T00:29:54.694Z,4.38
2023-02-18T00:32:21.417Z,4.40
2023-02-18T00:34:48.232Z,4.52
2023-02-18T00:37:14.865Z,4.70
2023-02-18T00:39:41.625Z,4.55
2023-02-18T00:42:08.217Z,4.44
2023-02-18T00:44:34.843Z,4.52
2023-02-18T00:47:01.611Z,4.81
2023-02-18T00:49:28.347Z,4.89
2023-02-18T00:51:54.969Z,4.77
2023-02-18T00:54:21.589Z,4.65
2023-02-18T00:56:48.235Z,4.91
2023-02-18T00:59:14.843Z,4.80
2023-02-18T01:01:41.639Z,4.72
2023-02-18T01:04:08.417Z,4.88
2023-02-18T01:06:35.062Z,4.94
2023-02-18T01:09:01.802Z,4.87
2023-02-18T01:15:21.583Z,4.83
2023-02-18T01:17:48.674Z,4.74
2023-02-18T01:20:16.013Z,4.85
2023-02-18T01:22:42.655Z,4.77
2023-02-18T01:25:10.242Z,4.97
2023-02-18T01:27:37.910Z,4.95
2023-02-18T01:30:05.997Z,4.99
2023-02-18T01:32:32.655Z,5.07
2023-02-18T01:35:02.407Z,5.06
2023-02-18T01:37:29.501Z,4.98
2023-02-18T01:39:56.234Z,4.96
2023-02-18T01:42:26.497Z,4.89
2023-02-18T01:44:54.010Z,4.69
2023-02-18T01:47:21.277Z,4.60
2023-02-18T01:49:52.798Z,4.52
2023-02-18T01:52:24.281Z,4.49
2023-02-18T01:54:57.210Z,4.65
2023-02-18T01:57:35.220Z,4.52
2023-02-18T02:00:12.289Z,4.45
2023-02-18T02:02:42.874Z,4.53
2023-02-18T02:05:09.511Z,4.49
2023-02-18T02:07:36.249Z,4.47
2023-02-18T02:10:03.436Z,4.73
2023-02-18T02:13:04.277Z,4.61
2023-02-18T02:16:15.465Z,4.46
2023-02-18T02:19:02.245Z,4.70
2023-02-18T02:21:50.820Z,4.71
2023-02-18T02:24:32.416Z,4.59
2023-02-18T02:27:14.017Z,4.47
2023-02-18T02:30:01.956Z,4.61
2023-02-18T02:33:01.498Z,4.50
2023-02-18T02:35:54.455Z,4.42
2023-02-18T02:38:27.128Z,4.59
2023-02-18T02:41:32.355Z,4.53
2023-02-18T02:44:02.016Z,4.43
2023-02-18T02:46:35.201Z,4.54
2023-02-18T02:49:33.748Z,4.58
2023-02-18T02:52:08.030Z,4.67
2023-02-18T02:54:34.688Z,4.65
2023-02-18T02:57:32.981Z,4.78
2023-02-18T03:00:04.799Z,4.66
2023-02-18T03:02:58.595Z,4.50
2023-02-18T03:05:46.835Z,4.33
2023-02-18T03:08:19.193Z,4.32
2023-02-18T03:11:04.737Z,4.48
2023-02-18T03:13:51.562Z,4.43
2023-02-18T03:16:30.221Z,4.50
2023-02-18T03:19:05.808Z,4.49
2023-02-18T03:21:38.301Z,4.80
2023-02-18T03:24:18.076Z,5.00
2023-02-18T03:26:50.671Z,4.94
2023-02-18T03:29:19.667Z,4.95
2023-02-18T03:31:52.875Z,4.98
2023-02-18T03:34:25.685Z,4.95
2023-02-18T03:36:53.599Z,4.96
2023-02-18T03:39:24.220Z,4.97
2023-02-18T03:41:50.865Z,5.27
2023-02-18T03:44:17.487Z,5.20
2023-02-18T03:46:45.259Z,5.34
2023-02-18T03:49:13.901Z,5.49
2023-02-18T03:51:41.031Z,5.43
2023-02-18T03:54:08.296Z,5.38
2023-02-18T03:56:36.319Z,5.64
2023-02-18T03:59:03.911Z,5.75
2023-02-18T04:01:30.629Z,5.62
2023-02-18T04:03:57.368Z,5.54
2023-02-18T04:06:24.213Z,5.49
2023-02-18T04:08:51.048Z,5.52
2023-02-18T04:11:18.237Z,5.50
2023-02-18T04:13:44.900Z,5.45
2023-02-18T04:16:11.778Z,5.40
2023-02-18T04:18:38.511Z,5.27
2023-02-18T04:21:05.525Z,5.22
2023-02-18T04:23:32.176Z,5.27
2023-02-18T04:25:58.769Z,5.59
2023-02-18T04:28:25.462Z,5.62
2023-02-18T04:30:52.220Z,5.58
2023-02-18T04:33:18.975Z,5.52
2023-02-18T04:35:46.071Z,5.66
2023-02-18T04:38:14.855Z,5.56
2023-02-18T04:40:41.610Z,5.48
2023-02-18T04:43:08.262Z,5.47
2023-02-18T04:45:34.955Z,5.62
2023-02-18T04:48:01.622Z,5.96
2023-02-18T04:50:28.362Z,6.07
2023-02-18T04:52:55.038Z,5.92
2023-02-18T04:55:21.798Z,5.82
2023-02-18T04:57:48.483Z,5.85
2023-02-18T05:00:18.332Z,6.02
2023-02-18T05:02:45.649Z,5.86
2023-02-18T05:05:13.609Z,6.03
2023-02-18T05:07:42.405Z,5.99
2023-02-18T05:10:11.350Z,5.89
2023-02-18T05:12:38.105Z,5.89
2023-02-18T05:15:05.098Z,5.85
2023-02-18T05:17:31.696Z,5.86
2023-02-18T05:19:58.503Z,6.07
2023-02-18T05:22:25.304Z,6.02
2023-02-18T05:24:51.934Z,5.90
2023-02-18T05:27:18.636Z,5.96
2023-02-18T05:29:45.318Z,5.88
2023-02-18T05:32:11.927Z,5.82
2023-02-18T05:34:38.935Z,6.23
2023-02-18T05:37:05.594Z,6.39
2023-02-18T05:39:32.222Z,6.28
2023-02-18T05:41:58.872Z,6.13
2023-02-18T05:44:31.511Z,6.13
2023-02-18T05:46:59.921Z,6.04
2023-02-18T05:49:27.004Z,5.92
2023-02-18T05:51:53.711Z,5.86
2023-02-18T05:54:20.608Z,5.94
2023-02-18T05:56:47.438Z,5.97
2023-02-18T05:59:14.872Z,5.86
2023-02-18T06:01:41.669Z,5.83
2023-02-18T06:04:08.686Z,5.81
2023-02-18T06:06:35.964Z,5.90
2023-02-18T06:09:03.616Z,5.96
2023-02-18T06:11:30.254Z,5.86
2023-02-18T06:13:56.906Z,5.87
2023-02-18T06:16:23.973Z,5.85
2023-02-18T06:18:50.651Z,5.87
2023-02-18T06:21:17.317Z,5.87
2023-02-18T06:23:44.154Z,5.85
2023-02-18T06:26:11.157Z,5.79
2023-02-18T06:28:37.896Z,5.73
2023-02-18T06:31:04.905Z,5.98
2023-02-18T06:33:31.716Z,5.98
2023-02-18T06:35:59.817Z,5.86
2023-02-18T06:38:27.382Z,5.83
2023-02-18T06:40:54.053Z,6.18
2023-02-18T06:43:21.072Z,6.10
2023-02-18T06:45:47.813Z,6.02
2023-02-18T06:48:14.660Z,6.05
2023-02-18T06:50:43.090Z,5.99
2023-02-18T06:53:09.944Z,5.97
2023-02-18T06:55:37.134Z,6.05
2023-02-18T06:58:04.770Z,6.43
2023-02-18T07:00:31.949Z,6.35
2023-02-18T07:03:00.086Z,6.29
2023-02-18T07:05:26.861Z,6.29
2023-02-18T07:07:53.521Z,6.33
2023-02-18T07:10:20.375Z,6.36
2023-02-18T07:12:47.191Z,6.38
2023-02-18T07:15:14.092Z,6.37
2023-02-18T07:17:40.738Z,6.35
2023-02-18T07:20:08.323Z,6.70
2023-02-18T07:22:35.053Z,6.66
2023-02-18T07:25:01.816Z,6.60
2023-02-18T07:27:28.444Z,6.68
2023-02-18T07:29:55.362Z,6.97
2023-02-18T07:32:21.993Z,6.95
2023-02-18T07:34:48.624Z,6.84
2023-02-18T07:37:15.266Z,6.72
2023-02-18T07:39:43.159Z,6.63
2023-02-18T07:42:11.118Z,6.66
2023-02-18T07:44:38.947Z,6.75
2023-02-18T07:47:06.849Z,6.70
2023-02-18T07:49:34.020Z,6.76
2023-02-18T07:52:00.730Z,6.82
2023-02-18T07:54:27.814Z,6.86
2023-02-18T07:56:55.010Z,6.97
2023-02-18T07:59:21.663Z,7.13
2023-02-18T08:01:48.397Z,7.16
2023-02-18T08:04:15.476Z,7.08
2023-02-18T08:06:47.472Z,7.08
2023-02-18T08:09:14.645Z,7.06
2023-02-18T08:11:41.347Z,7.15
2023-02-18T08:14:08.308Z,7.37
2023-02-18T08:16:35.678Z,7.34
2023-02-18T08:19:04.090Z,7.35
2023-02-18T08:21:31.233Z,7.35
2023-02-18T08:23:59.318Z,7.38
2023-02-18T08:26:26.565Z,7.49
2023-02-18T08:28:53.358Z,7.79
2023-02-18T08:31:28.184Z,8.12
2023-02-18T08:33:55.735Z,8.43
2023-02-18T08:36:23.519Z,8.68
2023-02-18T08:38:50.459Z,8.70
2023-02-18T08:41:19.161Z,8.80
2023-02-18T08:43:46.968Z,8.85
2023-02-18T08:46:16.254Z,8.90
2023-02-18T08:48:44.474Z,8.92
2023-02-18T08:51:18.279Z,9.04
2023-02-18T08:53:46.876Z,9.33
2023-02-18T08:56:15.110Z,9.41
2023-02-18T08:58:42.499Z,9.62
2023-02-18T09:01:11.446Z,9.71
2023-02-18T09:03:39.410Z,9.83
2023-02-18T09:06:06.460Z,10.04
2023-02-18T09:08:33.393Z,10.39
2023-02-18T09:11:02.155Z,10.59
2023-02-18T09:13:28.884Z,10.81
2023-02-18T09:15:59.507Z,11.06
2023-02-18T09:18:26.384Z,11.10
2023-02-18T09:20:56.890Z,11.14
2023-02-18T09:23:24.622Z,11.28
2023-02-18T09:25:51.334Z,11.21
2023-02-18T09:28:18.001Z,11.23
2023-02-18T09:30:44.700Z,11.37
2023-02-18T09:33:11.776Z,11.61
2023-02-18T09:35:46.217Z,11.64
2023-02-18T09:38:15.866Z,11.80
2023-02-18T09:40:54.354Z,11.91
2023-02-18T09:43:35.943Z,12.30
2023-02-18T09:46:04.690Z,12.61
2023-02-18T09:48:34.291Z,12.82
2023-02-18T09:51:01.092Z,12.93
2023-02-18T09:53:27.897Z,13.25
2023-02-18T09:55:57.044Z,13.43
2023-02-18T09:58:25.213Z,13.57
2023-02-18T10:01:00.334Z,13.82
2023-02-18T10:03:27.293Z,14.06
2023-02-18T10:06:02.852Z,14.13
2023-02-18T10:08:50.804Z,14.59
2023-02-18T10:11:42.357Z,14.81
2023-02-18T10:14:14.668Z,14.91
2023-02-18T10:16:43.757Z,15.10
2023-02-18T10:19:41.128Z,15.08
2023-02-18T10:22:12.843Z,15.37
2023-02-18T10:24:54.129Z,15.51
2023-02-18T10:27:29.740Z,15.53
2023-02-18T10:30:02.633Z,15.68
2023-02-18T10:32:36.771Z,15.81
2023-02-18T10:35:27.921Z,15.96
2023-02-18T10:38:20.431Z,16.13
2023-02-18T10:41:18.733Z,16.27
2023-02-18T10:43:53.780Z,16.43
2023-02-18T10:46:35.132Z,16.66
2023-02-18T10:49:29.484Z,16.86
2023-02-18T10:51:59.334Z,16.75
2023-02-18T10:54:27.464Z,16.75
2023-02-18T10:57:00.108Z,16.89
2023-02-18T10:59:33.327Z,16.82
2023-02-18T11:02:13.853Z,17.11
2023-02-18T11:04:44.932Z,17.29
2023-02-18T11:07:27.220Z,17.26
2023-02-18T11:09:56.231Z,17.09
2023-02-18T11:12:44.398Z,17.16
2023-02-18T11:15:13.815Z,16.89
2023-02-18T11:17:41.709Z,16.75
2023-02-18T11:20:26.742Z,16.34
2023-02-18T11:22:58.100Z,16.42
2023-02-18T11:25:27.689Z,16.56
2023-02-18T11:28:00.438Z,16.48
2023-02-18T11:30:35.118Z,16.54
2023-02-18T11:33:08.706Z,16.37
2023-02-18T11:35:36.265Z,16.25
2023-02-18T11:38:16.772Z,16.21
2023-02-18T11:40:43.545Z,16.10
2023-02-18T11:43:16.079Z,16.18
2023-02-18T11:45:44.125Z,16.08
2023-02-18T11:48:24.457Z,16.22
2023-02-18T11:50:53.098Z,16.32
2023-02-18T11:53:33.678Z,16.38
2023-02-18T11:56:03.579Z,16.37
2023-02-18T11:58:39.960Z,16.36
2023-02-18T12:01:14.500Z,16.37
2023-02-18T12:03:54.748Z,16.43
2023-02-18T12:06:28.581Z,16.53
2023-02-18T12:09:01.464Z,16.79
2023-02-18T12:11:36.512Z,16.96
2023-02-18T12:14:03.599Z,16.90
2023-02-18T12:16:36.400Z,16.76
2023-02-18T12:19:28.984Z,16.59
2023-02-18T12:22:17.088Z,16.49
2023-02-18T12:25:04.400Z,16.30
2023-02-18T12:27:56.959Z,16.08
2023-02-18T12:30:46.029Z,16.35
2023-02-18T12:33:37.164Z,16.48
2023-02-18T12:36:10.744Z,16.44
2023-02-18T12:38:49.854Z,16.49
2023-02-18T12:41:38.310Z,16.65
2023-02-18T12:44:19.827Z,16.33
2023-02-18T12:47:12.445Z,15.95
2023-02-18T12:50:15.722Z,15.74
2023-02-18T12:53:01.667Z,15.79
2023-02-18T12:55:37.439Z,15.94
2023-02-18T12:58:37.319Z,15.72
2023-02-18T13:01:18.859Z,15.65
2023-02-18T13:03:48.484Z,15.67
2023-02-18T13:06:15.232Z,15.40
2023-02-18T13:08:48.037Z,15.20
2023-02-18T13:11:39.080Z,15.12
2023-02-18T13:14:30.930Z,14.87
2023-02-18T13:17:00.176Z,14.79
2023-02-18T13:19:26.915Z,14.91
2023-02-18T13:22:06.791Z,14.84
2023-02-18T13:24:36.603Z,14.55
2023-02-18T13:27:06.180Z,14.42
2023-02-18T13:29:47.707Z,14.27
2023-02-18T13:32:37.602Z,14.08
2023-02-18T13:35:13.220Z,14.58
2023-02-18T13:38:18.416Z,14.86
2023-02-18T13:40:45.729Z,14.63
2023-02-18T13:43:30.174Z,14.55
2023-02-18T13:46:19.966Z,14.73
2023-02-18T13:48:53.106Z,14.82
2023-02-18T13:51:33.913Z,14.67
2023-02-18T13:54:17.601Z,14.41
2023-02-18T13:57:06.347Z,14.13
2023-02-18T13:59:41.706Z,13.88
2023-02-18T14:02:21.036Z,13.68
2023-02-18T14:05:05.848Z,13.58
2023-02-18T14:07:44.141Z,13.48
2023-02-18T14:10:16.573Z,13.54
2023-02-18T14:12:51.900Z,13.38
2023-02-18T14:15:18.939Z,13.22
2023-02-18T14:18:08.824Z,13.08
2023-02-18T14:20:38.549Z,12.89
2023-02-18T14:23:20.449Z,12.77
2023-02-18T14:25:53.762Z,12.78
2023-02-18T14:28:54.647Z,12.74
2023-02-18T14:31:41.444Z,12.70
2023-02-18T14:34:26.975Z,12.55
2023-02-18T14:37:27.427Z,12.46
2023-02-18T14:40:24.942Z,12.44
2023-02-18T14:43:08.577Z,12.36
2023-02-18T14:46:01.804Z,12.25
2023-02-18T14:48:57.835Z,12.25
2023-02-18T14:51:27.229Z,12.19
2023-02-18T14:53:53.926Z,12.23
2023-02-18T14:56:21.874Z,12.14
2023-02-18T14:58:52.827Z,12.08
2023-02-18T15:01:31.660Z,12.02
2023-02-18T15:04:00.245Z,12.01
2023-02-18T15:06:36.225Z,11.91
2023-02-18T15:09:23.259Z,11.73
2023-02-18T15:11:51.673Z,11.61
2023-02-18T15:14:21.822Z,11.51
2023-02-18T15:16:50.006Z,11.48
2023-02-18T15:19:23.197Z,11.40
2023-02-18T15:21:51.946Z,11.26
2023-02-18T15:24:31.279Z,11.18
2023-02-18T15:27:02.358Z,11.02
2023-02-18T15:29:33.904Z,11.02
2023-02-18T15:32:01.739Z,10.94
2023-02-18T15:34:39.141Z,10.75
2023-02-18T15:37:14.044Z,10.57
2023-02-18T15:39:42.662Z,10.50
2023-02-18T15:42:25.004Z,10.44
2023-02-18T15:44:57.537Z,10.46
2023-02-18T15:47:25.141Z,10.20
2023-02-18T15:49:55.608Z,9.98
2023-02-18T15:52:40.213Z,9.86
2023-02-18T15:55:27.163Z,9.67
2023-02-18T15:57:54.766Z,9.61
2023-02-18T16:00:37.089Z,9.44
2023-02-18T16:03:15.960Z,9.45
2023-02-18T16:05:43.223Z,9.42
2023-02-18T16:08:17.099Z,9.07
2023-02-18T16:10:54.286Z,8.99
2023-02-18T16:13:21.890Z,8.91
2023-02-18T16:15:50.854Z,8.83
2023-02-18T16:18:36.830Z,8.78
2023-02-18T16:21:23.692Z,8.71
2023-02-18T16:23:58.100Z,8.67
2023-02-18T16:26:30.444Z,8.56
2023-02-18T16:29:05.867Z,8.50
2023-02-18T16:31:32.533Z,8.48
2023-02-18T16:33:59.217Z,8.47
2023-02-18T16:36:26.521Z,8.25
2023-02-18T16:38:53.249Z,8.06
2023-02-18T16:41:20.043Z,8.04
2023-02-18T16:43:46.677Z,8.31
2023-02-18T16:46:16.696Z,8.15
2023-02-18T16:48:46.298Z,8.05
2023-02-18T16:51:26.096Z,7.96
2023-02-18T16:53:52.872Z,7.92
2023-02-18T16:56:22.760Z,7.93
2023-02-18T16:58:50.954Z,7.86
2023-02-18T17:01:29.697Z,7.83
2023-02-18T17:03:58.849Z,7.78
2023-02-18T17:06:25.859Z,7.77
2023-02-18T17:08:52.937Z,7.80
2023-02-18T17:11:26.048Z,7.76
2023-02-18T17:13:54.536Z,7.72
2023-02-18T17:16:22.878Z,7.51
2023-02-18T17:18:50.149Z,7.44
2023-02-18T17:21:19.692Z,7.48
2023-02-18T17:23:47.073Z,7.38
2023-02-18T17:26:25.182Z,7.35
2023-02-18T17:28:55.440Z,7.29
2023-02-18T17:31:26.248Z,7.22
2023-02-18T17:33:58.752Z,7.18
2023-02-18T17:36:25.531Z,7.39
2023-02-18T17:38:53.396Z,7.31
2023-02-18T17:41:20.318Z,7.13
2023-02-18T17:43:47.143Z,6.98
2023-02-18T17:46:16.773Z,6.97
2023-02-18T17:48:44.956Z,6.99
2023-02-18T17:51:24.792Z,6.88
2023-02-18T17:53:51.576Z,6.83
2023-02-18T17:56:18.234Z,6.94
2023-02-18T18:01:26.160Z,6.84
2023-02-18T18:03:52.907Z,6.77
2023-02-18T18:06:20.979Z,6.61
2023-02-18T18:08:48.590Z,6.62
2023-02-18T18:11:25.380Z,6.69
2023-02-18T18:13:55.090Z,6.52
2023-02-18T18:16:22.097Z,6.40
2023-02-18T18:18:48.875Z,6.49
2023-02-18T18:21:23.660Z,6.47
2023-02-18T18:23:50.968Z,6.51
2023-02-18T18:26:17.643Z,6.26
2023-02-18T18:31:23.920Z,6.19
2023-02-18T18:33:53.305Z,6.14
2023-02-18T18:36:21.851Z,6.02
2023-02-18T18:38:48.578Z,5.93
2023-02-18T18:41:18.775Z,5.82
2023-02-18T18:43:46.074Z,5.95
2023-02-18T18:46:13.078Z,5.86
2023-02-18T18:49:39.335Z,5.83
2023-02-18T18:52:06.211Z,5.84
2023-02-18T18:54:32.942Z,5.80
2023-02-18T18:56:59.595Z,5.82
2023-02-18T18:59:26.239Z,5.80
2023-02-18T19:01:53.430Z,5.74
2023-02-18T19:04:20.896Z,5.69
2023-02-18T19:06:47.547Z,5.74
2023-02-18T19:09:14.227Z,5.68
2023-02-18T19:11:40.876Z,5.59
2023-02-18T19:14:11.908Z,5.56
2023-02-18T19:16:42.756Z,5.58
2023-02-18T19:19:10.907Z,5.49
2023-02-18T19:21:37.605Z,5.55
2023-02-18T19:24:04.589Z,5.47
2023-02-18T19:26:32.626Z,5.52
2023-02-18T19:28:59.401Z,5.61
2023-02-18T19:31:26.325Z,5.43
2023-02-18T19:33:53.020Z,5.33
2023-02-18T19:36:19.823Z,5.35
2023-02-18T19:38:46.704Z,5.34
2023-02-18T19:41:15.451Z,5.51
2023-02-18T19:43:42.906Z,5.66
2023-02-18T19:46:15.833Z,5.60
2023-02-18T19:48:42.977Z,5.50
2023-02-18T19:51:10.182Z,5.48
2023-02-18T19:53:37.546Z,5.70
2023-02-18T19:56:08.067Z,5.63
2023-02-18T19:58:35.959Z,5.71
2023-02-18T20:01:03.122Z,5.67
2023-02-18T20:03:29.749Z,5.87
2023-02-18T20:05:56.423Z,5.68
2023-02-18T20:08:23.045Z,5.55
2023-02-18T20:12:39.905Z,5.72
2023-02-18T20:15:06.835Z,5.71
2023-02-18T20:20:13.254Z,5.71
2023-02-18T20:22:39.942Z,5.70
2023-02-18T20:27:59.756Z,5.66
2023-02-18T20:30:27.702Z,5.64
2023-02-18T20:32:54.395Z,5.58
2023-02-18T20:35:21.153Z,5.58
2023-02-18T20:37:47.743Z,5.67
2023-02-18T20:40:14.507Z,5.68
2023-02-18T20:42:42.174Z,5.62
2023-02-18T20:45:10.540Z,5.60
2023-02-18T20:47:37.265Z,5.61
2023-02-18T20:50:04.319Z,5.66
2023-02-18T20:52:33.570Z,5.66
2023-02-18T20:55:01.259Z,5.63
2023-02-18T20:57:28.320Z,5.58
2023-02-18T20:59:55.244Z,5.54
2023-02-18T21:02:21.896Z,5.51
2023-02-18T21:04:48.544Z,5.58
2023-02-18T21:07:15.197Z,5.73
2023-02-18T21:09:41.864Z,5.70
2023-02-18T21:12:09.874Z,5.68
2023-02-18T21:14:36.681Z,5.66
2023-02-18T21:17:03.793Z,5.69
2023-02-18T21:19:30.801Z,5.66
2023-02-18T21:21:57.477Z,5.72
2023-02-18T21:24:24.263Z,5.77
2023-02-18T21:26:50.990Z,5.80
2023-02-18T21:29:17.605Z,5.77
2023-02-18T21:31:44.510Z,5.81
2023-02-18T21:34:14.661Z,5.80
2023-02-18T21:36:42.316Z,5.84
2023-02-18T21:39:10.347Z,5.82
2023-02-18T21:41:40.378Z,6.04
2023-02-18T21:44:08.136Z,6.02
2023-02-18T21:46:36.395Z,5.99
2023-02-18T21:49:07.107Z,6.02
2023-02-18T21:51:58.926Z,6.00
2023-02-18T21:54:27.398Z,5.97
2023-02-18T21:56:54.945Z,6.03
2023-02-18T21:59:23.495Z,6.09
2023-02-18T22:01:50.306Z,6.16
2023-02-18T22:04:17.079Z,6.19
2023-02-18T22:06:43.910Z,6.12
2023-02-18T22:09:12.901Z,6.11
2023-02-18T22:11:43.418Z,6.12
2023-02-18T22:14:11.480Z,6.06
2023-02-18T22:16:38.580Z,6.13
2023-02-18T22:19:05.478Z,6.26
2023-02-18T22:21:32.259Z,6.28
2023-02-18T22:23:58.882Z,6.31
2023-02-18T22:26:25.636Z,6.20
2023-02-18T22:28:54.565Z,6.19
2023-02-18T22:31:22.665Z,6.28
2023-02-18T22:33:52.130Z,6.21
2023-02-18T22:36:23.160Z,6.22
2023-02-18T22:38:50.637Z,6.27
2023-02-18T22:41:19.402Z,6.24
2023-02-18T22:43:46.531Z,6.19
2023-02-18T22:46:15.841Z,6.19
2023-02-18T22:48:43.306Z,6.20
2023-02-18T22:51:13.557Z,6.45
2023-02-18T22:53:40.950Z,6.37
2023-02-18T22:56:12.336Z,6.33
2023-02-18T22:58:40.081Z,6.28
2023-02-18T23:01:07.314Z,6.27
2023-02-18T23:03:34.569Z,6.37
2023-02-18T23:06:06.006Z,6.37
2023-02-18T23:08:33.756Z,6.30
2023-02-18T23:11:09.545Z,6.33
2023-02-18T23:13:37.063Z,6.33
2023-02-18T23:16:07.450Z,6.30
2023-02-18T23:18:35.552Z,6.22
2023-02-18T23:21:20.887Z,6.16
2023-02-18T23:23:50.330Z,6.19
2023-02-18T23:26:18.440Z,6.24
2023-02-18T23:28:48.584Z,6.24
2023-02-18T23:31:24.652Z,6.29
2023-02-18T23:33:59.282Z,6.14
2023-02-18T23:36:28.657Z,6.10
2023-02-18T23:38:58.186Z,6.13
2023-02-18T23:41:26.629Z,6.26
2023-02-18T23:43:54.060Z,6.19
2023-02-18T23:46:23.714Z,6.15
2023-02-18T23:48:50.783Z,6.11
2023-02-18T23:51:20.028Z,6.27
2023-02-18T23:53:47.006Z,6.16
2023-02-18T23:56:13.636Z,5.99
2023-02-18T23:58:42.927Z,5.76
